createdAt,value
2023-05-25T00:00:07.161Z,14.68
2023-05-25T00:02:56.377Z,14.68
2023-05-25T00:05:27.981Z,14.68
2023-05-25T00:07:57.062Z,14.68
2023-05-25T00:10:25.515Z,14.69
2023-05-25T00:12:56.801Z,14.68
2023-05-25T00:15:26.447Z,14.68
2023-05-25T00:17:54.751Z,14.66
2023-05-25T00:20:23.697Z,14.64
2023-05-25T00:22:52.692Z,14.62
2023-05-25T00:25:21.928Z,14.60
2023-05-25T00:27:52.522Z,14.57
2023-05-25T00:30:24.274Z,14.52
2023-05-25T00:32:55.309Z,14.48
2023-05-25T00:35:23.746Z,14.44
2023-05-25T00:37:52.659Z,14.42
2023-05-25T00:40:23.296Z,14.40
2023-05-25T00:42:53.767Z,14.36
2023-05-25T00:45:22.658Z,14.32
2023-05-25T00:47:53.440Z,14.28
2023-05-25T00:50:37.732Z,14.27
2023-05-25T00:53:08.250Z,14.26
2023-05-25T00:55:49.799Z,14.23
2023-05-25T00:58:24.918Z,14.20
2023-05-25T01:00:57.903Z,14.16
2023-05-25T01:03:34.511Z,14.12
2023-05-25T01:06:04.249Z,14.10
2023-05-25T01:08:36.195Z,14.09
2023-05-25T01:11:06.721Z,14.08
2023-05-25T01:13:38.282Z,14.06
2023-05-25T01:16:08.934Z,14.05
2023-05-25T01:18:42.399Z,14.05
2023-05-25T01:21:30.736Z,14.05
2023-05-25T01:24:05.567Z,14.04
2023-05-25T01:26:42.675Z,14.03
2023-05-25T01:29:12.216Z,14.03
2023-05-25T01:31:42.033Z,14.00
2023-05-25T01:34:12.843Z,14.00
2023-05-25T01:36:42.699Z,14.01
2023-05-25T01:39:12.825Z,14.02
2023-05-25T01:41:40.582Z,14.03
2023-05-25T01:44:09.515Z,13.99
2023-05-25T01:46:41.821Z,13.94
2023-05-25T01:49:19.734Z,13.92
2023-05-25T01:51:55.174Z,13.88
2023-05-25T01:54:36.888Z,13.83
2023-05-25T01:57:14.612Z,13.80
2023-05-25T01:59:46.974Z,13.76
2023-05-25T02:02:17.956Z,13.70
2023-05-25T02:04:47.887Z,13.67
2023-05-25T02:07:17.819Z,13.68
2023-05-25T02:09:50.030Z,13.68
2023-05-25T02:12:20.598Z,13.69
2023-05-25T02:14:51.651Z,13.68
2023-05-25T02:17:24.085Z,13.66
2023-05-25T02:19:54.835Z,13.66
2023-05-25T02:22:24.637Z,13.63
2023-05-25T02:24:53.678Z,13.59
2023-05-25T02:27:28.951Z,13.59
2023-05-25T02:30:00.713Z,13.58
2023-05-25T02:32:32.309Z,13.57
2023-05-25T02:35:06.566Z,13.57
2023-05-25T02:37:40.946Z,13.57
2023-05-25T02:40:11.439Z,13.57
2023-05-25T02:42:42.932Z,13.59
2023-05-25T02:45:16.104Z,13.59
2023-05-25T02:47:45.621Z,13.59
2023-05-25T02:50:16.529Z,13.56
2023-05-25T02:52:50.850Z,13.54
2023-05-25T02:55:20.929Z,13.53
2023-05-25T02:57:53.114Z,13.53
2023-05-25T03:00:38.029Z,13.56
2023-05-25T03:03:09.034Z,13.57
2023-05-25T03:05:38.955Z,13.60
2023-05-25T03:08:08.334Z,13.61
2023-05-25T03:10:37.795Z,13.62
2023-05-25T03:13:09.656Z,13.62
2023-05-25T03:15:40.159Z,13.62
2023-05-25T03:18:08.264Z,13.64
2023-05-25T03:20:42.125Z,13.64
2023-05-25T03:23:11.596Z,13.66
2023-05-25T03:25:39.822Z,13.68
2023-05-25T03:28:09.248Z,13.68
2023-05-25T03:30:37.933Z,13.69
2023-05-25T03:33:06.413Z,13.70
2023-05-25T03:35:38.331Z,13.74
2023-05-25T03:38:06.744Z,13.78
2023-05-25T03:40:37.195Z,13.83
2023-05-25T03:43:07.254Z,13.88
2023-05-25T03:45:37.438Z,13.92
2023-05-25T03:48:07.056Z,13.95
2023-05-25T03:50:36.064Z,13.98
2023-05-25T03:53:04.888Z,14.02
2023-05-25T03:55:32.671Z,14.08
2023-05-25T03:58:00.436Z,14.13
2023-05-25T04:00:29.728Z,14.18
2023-05-25T04:02:58.920Z,14.22
2023-05-25T04:05:27.002Z,14.27
2023-05-25T04:07:57.443Z,14.34
2023-05-25T04:10:25.393Z,14.39
2023-05-25T04:12:58.297Z,14.45
2023-05-25T04:15:26.534Z,14.46
2023-05-25T04:18:03.561Z,14.47
2023-05-25T04:20:32.813Z,14.48
2023-05-25T04:23:01.509Z,14.50
2023-05-25T04:25:29.779Z,14.51
2023-05-25T04:27:59.311Z,14.57
2023-05-25T04:30:48.453Z,14.61
2023-05-25T04:33:38.905Z,14.70
2023-05-25T04:36:22.389Z,14.75
2023-05-25T04:38:52.343Z,14.85
2023-05-25T04:41:21.747Z,14.96
2023-05-25T04:44:06.871Z,15.05
2023-05-25T04:46:41.075Z,15.11
2023-05-25T04:49:19.073Z,15.17
2023-05-25T04:51:47.684Z,15.25
2023-05-25T04:54:16.876Z,15.33
2023-05-25T04:56:45.347Z,15.39
2023-05-25T04:59:13.730Z,15.40
2023-05-25T05:01:41.711Z,15.42
2023-05-25T05:04:14.220Z,15.47
2023-05-25T05:06:42.762Z,15.49
2023-05-25T05:09:16.047Z,15.53
2023-05-25T05:11:44.944Z,15.57
2023-05-25T05:14:14.451Z,15.61
2023-05-25T05:16:45.049Z,15.65
2023-05-25T05:19:13.566Z,15.72
2023-05-25T05:21:42.958Z,15.74
2023-05-25T05:24:11.259Z,15.78
2023-05-25T05:26:55.783Z,15.79
2023-05-25T05:29:30.233Z,15.83
2023-05-25T05:31:59.244Z,15.87
2023-05-25T05:34:27.271Z,15.94
2023-05-25T05:36:58.806Z,16.00
2023-05-25T05:39:28.655Z,16.05
2023-05-25T05:41:57.026Z,16.09
2023-05-25T05:44:28.708Z,16.14
2023-05-25T05:46:59.763Z,16.20
2023-05-25T05:49:29.857Z,16.32
2023-05-25T05:51:58.931Z,16.46
2023-05-25T05:54:29.781Z,16.59
2023-05-25T05:57:01.584Z,16.69
2023-05-25T05:59:29.185Z,16.81
2023-05-25T06:01:57.289Z,16.89
2023-05-25T06:04:28.406Z,17.03
2023-05-25T06:06:55.983Z,17.15
2023-05-25T06:09:23.613Z,17.30
2023-05-25T06:11:52.403Z,17.49
2023-05-25T06:14:20.376Z,17.62
2023-05-25T06:16:48.753Z,17.90
2023-05-25T06:19:16.514Z,18.18
2023-05-25T06:21:44.478Z,18.28
2023-05-25T06:24:14.906Z,18.66
2023-05-25T06:26:42.800Z,18.91
2023-05-25T06:29:10.955Z,18.80
2023-05-25T06:31:38.817Z,18.92
2023-05-25T06:34:07.607Z,19.03
2023-05-25T06:36:35.161Z,19.22
2023-05-25T06:39:02.504Z,19.43
2023-05-25T06:41:30.702Z,19.52
2023-05-25T06:43:58.258Z,19.55
2023-05-25T06:46:32.673Z,19.71
2023-05-25T06:49:01.758Z,20.34
2023-05-25T06:51:29.221Z,21.13
2023-05-25T06:53:57.306Z,21.75
2023-05-25T06:56:25.975Z,22.20
2023-05-25T06:58:53.248Z,22.81
2023-05-25T07:01:21.047Z,22.60
2023-05-25T07:03:48.876Z,22.47
2023-05-25T07:06:17.133Z,22.39
2023-05-25T07:08:44.714Z,22.06
2023-05-25T07:11:13.893Z,21.88
2023-05-25T07:13:41.453Z,21.71
2023-05-25T07:16:09.470Z,21.41
2023-05-25T07:18:42.513Z,21.09
2023-05-25T07:21:11.129Z,20.80
2023-05-25T07:23:40.814Z,20.89
2023-05-25T07:26:08.983Z,21.14
2023-05-25T07:28:36.757Z,21.30
2023-05-25T07:31:04.456Z,21.26
2023-05-25T07:33:32.177Z,21.29
2023-05-25T07:36:01.172Z,21.40
2023-05-25T07:38:29.034Z,21.60
2023-05-25T07:40:56.979Z,21.78
2023-05-25T07:43:24.910Z,21.92
2023-05-25T07:45:53.651Z,22.01
2023-05-25T07:48:21.416Z,22.06
2023-05-25T07:50:51.020Z,22.06
2023-05-25T07:53:19.307Z,22.02
2023-05-25T07:55:47.043Z,22.10
2023-05-25T07:58:15.436Z,22.06
2023-05-25T08:00:43.611Z,21.99
2023-05-25T08:03:12.316Z,21.79
2023-05-25T08:05:40.712Z,21.74
2023-05-25T08:08:08.134Z,21.71
2023-05-25T08:10:36.002Z,21.66
2023-05-25T08:13:03.671Z,21.66
2023-05-25T08:15:31.636Z,21.75
2023-05-25T08:17:59.652Z,21.79
2023-05-25T08:20:28.452Z,21.67
2023-05-25T08:22:56.492Z,21.64
2023-05-25T08:25:24.339Z,21.68
2023-05-25T08:27:52.182Z,21.78
2023-05-25T08:30:19.536Z,21.78
2023-05-25T08:32:47.136Z,21.63
2023-05-25T08:35:14.974Z,21.65
2023-05-25T08:37:43.136Z,21.60
2023-05-25T08:40:16.028Z,21.96
2023-05-25T08:42:45.121Z,22.25
2023-05-25T08:45:26.505Z,22.61
2023-05-25T08:48:04.162Z,22.92
2023-05-25T08:50:33.441Z,23.09
2023-05-25T08:53:04.796Z,23.16
2023-05-25T08:55:36.097Z,23.29
2023-05-25T08:58:16.650Z,23.61
2023-05-25T09:01:00.710Z,23.57
2023-05-25T09:03:30.617Z,23.55
2023-05-25T09:05:59.419Z,23.70
2023-05-25T09:08:27.695Z,23.93
2023-05-25T09:10:57.702Z,24.39
2023-05-25T09:13:26.100Z,24.95
2023-05-25T09:15:54.140Z,25.45
2023-05-25T09:18:22.293Z,25.65
2023-05-25T09:20:50.194Z,25.66
2023-05-25T09:23:18.949Z,25.78
2023-05-25T09:25:50.324Z,26.05
2023-05-25T09:30:52.205Z,26.21
2023-05-25T09:33:20.355Z,26.14
2023-05-25T09:35:48.785Z,25.90
2023-05-25T09:38:16.826Z,25.77
2023-05-25T09:40:45.441Z,25.99
2023-05-25T09:43:22.054Z,25.96
2023-05-25T09:45:54.165Z,25.97
2023-05-25T09:48:21.922Z,25.86
2023-05-25T09:50:50.185Z,25.57
2023-05-25T09:53:18.591Z,25.44
2023-05-25T09:55:53.155Z,25.45
2023-05-25T09:58:24.773Z,25.44
2023-05-25T10:00:54.656Z,25.46
2023-05-25T10:03:22.771Z,25.54
2023-05-25T10:05:51.954Z,25.78
2023-05-25T10:08:21.193Z,26.13
2023-05-25T10:10:50.326Z,26.29
2023-05-25T10:13:22.818Z,26.62
2023-05-25T10:15:54.062Z,26.70
2023-05-25T10:18:27.763Z,26.87
2023-05-25T10:21:04.751Z,26.85
2023-05-25T10:23:42.949Z,27.10
2023-05-25T10:26:13.574Z,27.20
2023-05-25T10:28:44.375Z,27.11
2023-05-25T10:31:13.328Z,27.19
2023-05-25T10:33:40.967Z,27.60
2023-05-25T10:36:13.251Z,27.76
2023-05-25T10:38:44.258Z,27.93
2023-05-25T10:41:12.063Z,28.40
2023-05-25T10:43:41.079Z,28.68
2023-05-25T10:46:09.196Z,29.06
2023-05-25T10:48:45.046Z,29.00
2023-05-25T10:51:13.939Z,29.21
2023-05-25T10:53:47.535Z,29.18
2023-05-25T10:56:14.998Z,29.26
2023-05-25T10:58:46.963Z,29.35
2023-05-25T11:01:16.056Z,29.15
2023-05-25T11:04:11.400Z,29.26
2023-05-25T11:06:44.165Z,29.25
2023-05-25T11:09:31.475Z,29.37
2023-05-25T11:12:01.474Z,29.64
2023-05-25T11:14:38.158Z,29.97
2023-05-25T11:17:12.922Z,29.97
2023-05-25T11:19:43.551Z,29.92
2023-05-25T11:22:30.432Z,29.78
2023-05-25T11:25:00.228Z,29.78
2023-05-25T11:27:32.641Z,29.69
2023-05-25T11:30:00.267Z,29.73
2023-05-25T11:32:28.950Z,29.92
2023-05-25T11:34:57.959Z,29.79
2023-05-25T11:37:30.758Z,29.88
2023-05-25T11:40:00.335Z,29.97
2023-05-25T11:42:29.558Z,29.92
2023-05-25T11:45:03.127Z,29.87
2023-05-25T11:47:32.799Z,30.08
2023-05-25T11:50:01.135Z,29.90
2023-05-25T11:52:28.792Z,30.04
2023-05-25T11:54:57.491Z,29.91
2023-05-25T11:57:25.852Z,29.96
2023-05-25T11:59:55.366Z,30.07
2023-05-25T12:02:24.011Z,30.11
2023-05-25T12:05:00.945Z,30.20
2023-05-25T12:07:29.728Z,30.50
2023-05-25T12:10:11.974Z,30.60
2023-05-25T12:12:47.249Z,30.49
2023-05-25T12:15:22.796Z,30.14
2023-05-25T12:17:51.951Z,30.08
2023-05-25T12:20:20.658Z,29.74
2023-05-25T12:22:48.467Z,29.81
2023-05-25T12:25:21.022Z,29.85
2023-05-25T12:27:48.672Z,29.80
2023-05-25T12:30:16.347Z,29.57
2023-05-25T12:32:55.157Z,29.46
2023-05-25T12:35:23.229Z,29.39
2023-05-25T12:37:50.883Z,29.25
2023-05-25T12:40:20.829Z,29.06
2023-05-25T12:42:58.118Z,28.81
2023-05-25T12:45:25.860Z,28.68
2023-05-25T12:47:53.477Z,28.64
2023-05-25T12:50:21.090Z,28.33
2023-05-25T12:52:49.586Z,28.40
2023-05-25T12:55:29.823Z,28.20
2023-05-25T12:58:01.222Z,27.95
2023-05-25T13:00:31.586Z,27.61
2023-05-25T13:02:59.768Z,27.49
2023-05-25T13:05:29.719Z,27.24
2023-05-25T13:07:58.084Z,27.11
2023-05-25T13:10:26.358Z,27.11
2023-05-25T13:12:55.842Z,27.09
2023-05-25T13:15:24.323Z,27.15
2023-05-25T13:17:53.976Z,27.10
2023-05-25T13:20:24.511Z,27.16
2023-05-25T13:22:55.345Z,27.11
2023-05-25T13:25:25.101Z,27.24
2023-05-25T13:27:53.860Z,27.28
2023-05-25T13:30:22.254Z,27.47
2023-05-25T13:32:52.177Z,27.52
2023-05-25T13:35:46.036Z,27.56
2023-05-25T13:38:16.500Z,27.71
2023-05-25T13:40:45.432Z,27.93
2023-05-25T13:43:13.150Z,28.06
2023-05-25T13:45:41.112Z,28.15
2023-05-25T13:48:08.927Z,28.32
2023-05-25T13:50:36.856Z,28.52
2023-05-25T13:53:04.200Z,28.58
2023-05-25T13:55:31.690Z,28.52
2023-05-25T13:57:59.119Z,28.26
2023-05-25T14:00:27.400Z,28.04
2023-05-25T14:02:55.155Z,28.05
2023-05-25T14:05:23.428Z,28.07
2023-05-25T14:07:51.813Z,28.07
2023-05-25T14:10:19.469Z,28.00
2023-05-25T14:12:47.439Z,28.01
2023-05-25T14:15:15.201Z,28.07
2023-05-25T14:17:43.212Z,28.21
2023-05-25T14:20:16.040Z,28.15
2023-05-25T14:22:43.616Z,27.99
2023-05-25T14:25:11.175Z,27.98
2023-05-25T14:27:38.739Z,27.85
2023-05-25T14:30:06.969Z,27.81
2023-05-25T14:32:34.603Z,27.86
2023-05-25T14:35:02.433Z,27.71
2023-05-25T14:37:30.104Z,27.55
2023-05-25T14:39:57.760Z,27.33
2023-05-25T14:42:25.526Z,27.14
2023-05-25T14:44:52.945Z,27.09
2023-05-25T14:47:20.558Z,26.93
2023-05-25T14:49:48.199Z,26.75
2023-05-25T14:52:15.766Z,26.64
2023-05-25T14:54:44.447Z,26.59
2023-05-25T14:57:12.259Z,26.66
2023-05-25T14:59:40.098Z,26.69
2023-05-25T15:02:08.225Z,26.71
2023-05-25T15:04:35.807Z,26.67
2023-05-25T15:07:04.043Z,26.68
2023-05-25T15:09:33.059Z,26.71
2023-05-25T15:12:01.679Z,26.72
2023-05-25T15:14:29.740Z,26.68
2023-05-25T15:16:57.189Z,26.66
2023-05-25T15:19:24.862Z,26.57
2023-05-25T15:21:52.520Z,26.53
2023-05-25T15:24:20.383Z,26.52
2023-05-25T15:26:48.759Z,26.48
2023-05-25T15:29:16.723Z,26.41
2023-05-25T15:31:45.169Z,26.33
2023-05-25T15:34:13.296Z,26.19
2023-05-25T15:36:41.159Z,26.04
2023-05-25T15:39:11.156Z,25.88
2023-05-25T15:41:38.737Z,25.69
2023-05-25T15:44:12.030Z,25.54
2023-05-25T15:46:40.940Z,25.39
2023-05-25T15:49:11.854Z,25.23
2023-05-25T15:51:44.236Z,25.09
2023-05-25T15:54:14.459Z,24.95
2023-05-25T15:56:42.764Z,24.73
2023-05-25T15:59:12.585Z,24.63
2023-05-25T16:01:41.377Z,24.49
2023-05-25T16:04:10.863Z,24.37
2023-05-25T16:06:39.255Z,24.41
2023-05-25T16:09:07.281Z,24.41
2023-05-25T16:11:35.649Z,24.46
2023-05-25T16:14:03.514Z,24.49
2023-05-25T16:16:31.339Z,24.59
2023-05-25T16:18:59.446Z,24.65
2023-05-25T16:21:27.624Z,24.68
2023-05-25T16:23:56.627Z,24.70
2023-05-25T16:26:23.947Z,24.67
2023-05-25T16:28:51.946Z,24.53
2023-05-25T16:31:19.715Z,24.42
2023-05-25T16:33:48.011Z,24.33
2023-05-25T16:36:16.457Z,24.17
2023-05-25T16:38:44.735Z,24.00
2023-05-25T16:41:12.345Z,23.84
2023-05-25T16:43:40.472Z,23.68
2023-05-25T16:46:07.854Z,23.53
2023-05-25T16:48:35.496Z,23.44
2023-05-25T16:51:03.651Z,23.29
2023-05-25T16:53:30.913Z,23.17
2023-05-25T16:55:58.366Z,23.10
2023-05-25T16:58:26.037Z,23.04
2023-05-25T17:00:53.909Z,22.94
2023-05-25T17:03:21.468Z,22.87
2023-05-25T17:05:51.355Z,22.81
2023-05-25T17:08:19.949Z,22.77
2023-05-25T17:10:48.988Z,22.73
2023-05-25T17:13:18.733Z,22.70
2023-05-25T17:15:47.045Z,22.69
2023-05-25T17:18:15.547Z,22.68
2023-05-25T17:20:43.249Z,22.65
2023-05-25T17:23:10.934Z,22.59
2023-05-25T17:25:39.131Z,22.53
2023-05-25T17:28:07.704Z,22.44
2023-05-25T17:30:35.153Z,22.37
2023-05-25T17:33:02.778Z,22.31
2023-05-25T17:35:30.988Z,22.25
2023-05-25T17:37:58.665Z,22.18
2023-05-25T17:40:26.205Z,22.08
2023-05-25T17:42:54.282Z,22.02
2023-05-25T17:45:21.745Z,21.97
2023-05-25T17:47:49.732Z,21.90
2023-05-25T17:50:17.172Z,21.84
2023-05-25T17:52:44.931Z,21.81
2023-05-25T17:55:12.283Z,21.78
2023-05-25T17:57:40.452Z,21.69
2023-05-25T18:00:08.650Z,21.60
2023-05-25T18:02:42.280Z,21.55
2023-05-25T18:05:09.787Z,21.51
2023-05-25T18:07:38.896Z,21.47
2023-05-25T18:10:07.739Z,21.41
2023-05-25T18:12:35.025Z,21.34
2023-05-25T18:15:02.962Z,21.25
2023-05-25T18:17:30.704Z,21.16
2023-05-25T18:19:58.244Z,21.10
2023-05-25T18:22:25.668Z,21.00
2023-05-25T18:24:53.434Z,20.92
2023-05-25T18:27:21.511Z,20.82
2023-05-25T18:29:48.891Z,20.72
2023-05-25T18:32:17.444Z,20.64
2023-05-25T18:34:44.964Z,20.56
2023-05-25T18:37:12.469Z,20.51
2023-05-25T18:39:40.833Z,20.41
2023-05-25T18:42:08.195Z,20.35
2023-05-25T18:44:36.166Z,20.31
2023-05-25T18:47:04.436Z,20.28
2023-05-25T18:49:34.368Z,20.24
2023-05-25T18:52:01.810Z,20.19
2023-05-25T18:54:29.583Z,20.14
2023-05-25T18:56:57.184Z,20.10
2023-05-25T18:59:24.801Z,19.86
2023-05-25T19:01:52.892Z,19.71
2023-05-25T19:04:20.417Z,19.63
2023-05-25T19:06:47.777Z,19.52
2023-05-25T19:09:15.233Z,19.40
2023-05-25T19:11:42.495Z,19.25
2023-05-25T19:14:09.954Z,19.04
2023-05-25T19:16:37.679Z,18.84
2023-05-25T19:19:05.164Z,18.62
2023-05-25T19:21:32.997Z,18.44
2023-05-25T19:24:00.493Z,18.29
2023-05-25T19:26:27.835Z,18.12
2023-05-25T19:28:55.293Z,17.98
2023-05-25T19:31:23.212Z,17.88
2023-05-25T19:33:50.962Z,17.77
2023-05-25T19:36:18.697Z,17.65
2023-05-25T19:38:46.559Z,17.55
2023-05-25T19:41:13.919Z,17.51
2023-05-25T19:43:42.313Z,17.47
2023-05-25T19:46:10.217Z,17.47
2023-05-25T19:48:43.759Z,17.45
2023-05-25T19:51:12.243Z,17.45
2023-05-25T19:53:39.593Z,17.41
2023-05-25T19:56:08.311Z,17.28
2023-05-25T19:58:36.061Z,17.15
2023-05-25T20:01:03.656Z,17.04
2023-05-25T20:03:31.718Z,16.92
2023-05-25T20:05:59.335Z,16.83
2023-05-25T20:08:27.924Z,16.72
2023-05-25T20:10:55.386Z,16.66
2023-05-25T20:13:22.944Z,16.62
2023-05-25T20:15:50.859Z,16.60
2023-05-25T20:18:18.460Z,16.60
2023-05-25T20:20:46.051Z,16.60
2023-05-25T20:23:13.689Z,16.57
2023-05-25T20:25:41.547Z,16.54
2023-05-25T20:28:09.112Z,16.55
2023-05-25T20:30:36.765Z,16.53
2023-05-25T20:33:04.367Z,16.54
2023-05-25T20:35:31.900Z,16.55
2023-05-25T20:37:59.546Z,16.58
2023-05-25T20:40:27.314Z,16.60
2023-05-25T20:42:56.508Z,16.64
2023-05-25T20:45:24.277Z,16.65
2023-05-25T20:48:03.397Z,16.65
2023-05-25T20:50:31.278Z,16.62
2023-05-25T20:52:58.729Z,16.56
2023-05-25T20:55:26.635Z,16.48
2023-05-25T20:57:56.291Z,16.43
2023-05-25T21:00:23.970Z,16.39
2023-05-25T21:02:52.001Z,16.35
2023-05-25T21:05:20.218Z,16.26
2023-05-25T21:07:47.584Z,16.20
2023-05-25T21:10:15.851Z,16.16
2023-05-25T21:12:43.405Z,16.17
2023-05-25T21:15:11.479Z,16.14
2023-05-25T21:17:39.016Z,16.10
2023-05-25T21:20:07.378Z,16.05
2023-05-25T21:22:35.174Z,16.00
2023-05-25T21:25:03.453Z,15.94
2023-05-25T21:27:31.023Z,15.87
2023-05-25T21:29:58.787Z,15.82
2023-05-25T21:32:26.975Z,15.75
2023-05-25T21:34:55.018Z,15.67
2023-05-25T21:37:22.688Z,15.58
2023-05-25T21:39:52.193Z,15.50
2023-05-25T21:42:19.749Z,15.43
2023-05-25T21:44:47.305Z,15.34
2023-05-25T21:47:15.776Z,15.23
2023-05-25T21:49:43.449Z,15.13
2023-05-25T21:52:19.500Z,15.07
2023-05-25T21:54:48.226Z,15.02
2023-05-25T21:57:15.654Z,15.01
2023-05-25T21:59:44.148Z,15.01
2023-05-25T22:02:12.233Z,15.00
2023-05-25T22:04:39.667Z,15.00
2023-05-25T22:07:08.158Z,15.02
2023-05-25T22:09:35.806Z,15.01
2023-05-25T22:12:03.988Z,14.99
2023-05-25T22:14:32.348Z,14.99
2023-05-25T22:17:00.681Z,14.97
2023-05-25T22:19:28.399Z,14.94
2023-05-25T22:21:55.948Z,14.90
2023-05-25T22:24:24.123Z,14.85
2023-05-25T22:26:52.198Z,14.81
2023-05-25T22:29:20.775Z,14.77
2023-05-25T22:31:50.343Z,14.74
2023-05-25T22:34:17.950Z,14.69
2023-05-25T22:36:46.174Z,14.62
2023-05-25T22:39:14.264Z,14.56
2023-05-25T22:41:42.672Z,14.48
2023-05-25T22:44:10.852Z,14.37
2023-05-25T22:46:39.389Z,14.22
2023-05-25T22:49:06.990Z,14.11
2023-05-25T22:51:36.400Z,14.03
2023-05-25T22:54:04.586Z,13.96
2023-05-25T22:56:32.431Z,13.90
2023-05-25T22:59:00.491Z,13.80
2023-05-25T23:01:28.590Z,13.71
2023-05-25T23:03:58.254Z,13.64
2023-05-25T23:06:26.374Z,13.60
2023-05-25T23:08:54.956Z,13.57
2023-05-25T23:11:23.111Z,13.51
2023-05-25T23:13:51.595Z,13.46
2023-05-25T23:16:21.427Z,13.41
2023-05-25T23:18:51.409Z,13.34
2023-05-25T23:21:19.398Z,13.28
2023-05-25T23:23:48.101Z,13.22
2023-05-25T23:26:16.968Z,13.17
2023-05-25T23:28:46.254Z,13.13
2023-05-25T23:31:14.793Z,13.09
2023-05-25T23:33:44.077Z,13.03
2023-05-25T23:36:13.361Z,12.99
2023-05-25T23:38:41.721Z,12.97
2023-05-25T23:41:10.284Z,12.93
2023-05-25T23:43:39.742Z,12.86
2023-05-25T23:46:08.363Z,12.78
2023-05-25T23:48:36.374Z,12.70
2023-05-25T23:51:07.120Z,12.63
2023-05-25T23:53:36.038Z,12.55
2023-05-25T23:56:04.483Z,12.50
2023-05-25T23:58:33.263Z,12.44
